Time;durP1;ratioP1;P1;durP2;ratioP2;P2;SDS_P1;SDS_P2;PMS_P1;PMS_P2;Temp;Humidity;BMP_temperature;BMP_pressure;BME280_temperature;BME280_humidity;BME280_pressure;Samples;Min_cycle;Max_cycle;Signal;HPM_P1;HPM_P2
2021/01/16 00:02:31;;;;;;;25.73;16.90;;;-5.10;72.40;;;;;;5213635;28;20044;-74
2021/01/16 00:05:03;;;;;;;23.35;16.25;;;-5.10;72.20;;;;;;5215284;28;20525;-74
2021/01/16 00:07:37;;;;;;;22.35;15.45;;;-5.10;72.30;;;;;;5214978;28;20122;-73
2021/01/16 00:10:10;;;;;;;20.80;15.15;;;-5.10;72.40;;;;;;5213236;28;20064;-73
2021/01/16 00:12:49;;;;;;;22.48;15.10;;;-5.10;73.40;;;;;;5216277;28;20609;-72
2021/01/16 00:15:21;;;;;;;21.10;14.95;;;-5.10;73.00;;;;;;5214042;28;20933;-73
2021/01/16 00:18:03;;;;;;;29.00;18.55;;;-5.20;73.00;;;;;;5211778;28;20120;-73
2021/01/16 00:20:37;;;;;;;26.85;18.25;;;-5.10;72.90;;;;;;5211297;28;20404;-75
2021/01/16 00:23:09;;;;;;;21.08;15.05;;;-5.20;73.40;;;;;;5209097;28;20041;-73
2021/01/16 00:25:42;;;;;;;16.63;12.90;;;-5.20;73.10;;;;;;5209056;28;20750;-73
2021/01/16 00:28:22;;;;;;;17.92;12.77;;;-5.20;73.10;;;;;;5211796;28;20037;-72
2021/01/16 00:30:54;;;;;;;15.90;12.40;;;-5.20;73.00;;;;;;5208167;28;20508;-73
2021/01/16 00:33:28;;;;;;;14.23;11.52;;;-5.20;73.40;;;;;;5212580;28;20048;-74
2021/01/16 00:36:02;;;;;;;16.23;12.45;;;-5.20;73.20;;;;;;5213951;28;20053;-73
2021/01/16 00:38:39;;;;;;;17.92;13.98;;;-5.20;73.20;;;;;;5211962;28;20044;-74
2021/01/16 00:41:11;;;;;;;20.95;14.82;;;-5.30;73.60;;;;;;5207339;28;20041;-74
2021/01/16 00:43:42;;;;;;;20.42;14.75;;;-5.30;73.80;;;;;;5213699;28;20130;-73
2021/01/16 00:46:14;;;;;;;25.20;16.70;;;-5.20;74.00;;;;;;5214888;28;20049;-73
2021/01/16 00:48:46;;;;;;;28.35;19.20;;;-5.20;73.80;;;;;;5217924;28;20037;-75
2021/01/16 00:51:17;;;;;;;28.83;19.10;;;-5.10;73.90;;;;;;5216245;28;20034;-74
2021/01/16 00:53:49;;;;;;;30.55;20.58;;;-5.10;73.60;;;;;;5216963;28;20040;-73
2021/01/16 00:56:20;;;;;;;28.55;19.08;;;-5.00;73.30;;;;;;5201651;28;20049;-73
2021/01/16 00:59:06;;;;;;;29.63;20.15;;;-5.00;73.10;;;;;;5217054;28;20045;-73
2021/01/16 01:01:44;;;;;;;27.30;19.85;;;-5.00;73.00;;;;;;5216757;28;20132;-73
2021/01/16 01:04:17;;;;;;;26.08;17.55;;;-5.10;73.20;;;;;;5202601;28;20057;-76
2021/01/16 01:06:48;;;;;;;28.38;19.27;;;-5.10;73.00;;;;;;5201698;28;20048;-74
2021/01/16 01:09:20;;;;;;;29.67;19.23;;;-5.10;73.00;;;;;;5217419;28;20048;-74
2021/01/16 01:11:51;;;;;;;26.42;17.92;;;-5.10;73.40;;;;;;5218693;28;20041;-74
2021/01/16 01:14:23;;;;;;;28.23;18.95;;;-5.10;73.40;;;;;;5219386;28;21420;-74
2021/01/16 01:16:54;;;;;;;27.25;18.38;;;-5.00;73.30;;;;;;5216631;28;20057;-74
2021/01/16 01:19:26;;;;;;;28.10;18.58;;;-5.00;73.00;;;;;;5216810;28;20029;-74
2021/01/16 01:21:57;;;;;;;30.77;19.27;;;-5.00;73.30;;;;;;5215785;28;20045;-75
2021/01/16 01:24:29;;;;;;;32.25;19.85;;;-5.00;73.30;;;;;;5218058;28;20843;-74
2021/01/16 01:27:00;;;;;;;28.88;20.17;;;-5.00;72.90;;;;;;5218445;28;20056;-73
2021/01/16 01:29:32;;;;;;;31.58;20.67;;;-5.00;72.80;;;;;;5218381;28;20099;-73
2021/01/16 01:32:04;;;;;;;28.80;18.90;;;-5.00;73.30;;;;;;5218641;28;20045;-73
2021/01/16 01:34:36;;;;;;;28.35;18.88;;;-5.10;73.70;;;;;;5219164;28;20064;-72
2021/01/16 01:37:07;;;;;;;28.27;18.17;;;-5.10;73.80;;;;;;5215535;28;20041;-72
2021/01/16 01:39:39;;;;;;;26.67;17.95;;;-5.20;73.70;;;;;;5215125;28;20059;-74
2021/01/16 01:42:18;;;;;;;29.08;18.05;;;-5.10;73.50;;;;;;5217071;28;20152;-72
2021/01/16 01:44:49;;;;;;;26.98;18.55;;;-5.20;73.10;;;;;;5218244;28;20037;-74
2021/01/16 01:47:21;;;;;;;27.42;18.83;;;-5.10;73.20;;;;;;5218126;28;20045;-73
2021/01/16 01:49:55;;;;;;;25.98;17.38;;;-5.10;73.20;;;;;;5217126;28;20040;-72
2021/01/16 01:52:27;;;;;;;26.45;17.33;;;-5.10;73.20;;;;;;5216205;28;20566;-72
2021/01/16 01:54:59;;;;;;;27.40;17.50;;;-5.10;73.20;;;;;;5215745;28;20045;-73
2021/01/16 01:57:37;;;;;;;28.30;18.98;;;-5.10;73.00;;;;;;5215446;28;20131;-73
2021/01/16 02:00:12;;;;;;;28.38;18.08;;;-5.00;73.10;;;;;;5215677;28;20571;-73
2021/01/16 02:02:46;;;;;;;29.45;19.77;;;-5.00;73.10;;;;;;5217453;28;20059;-74
2021/01/16 02:05:17;;;;;;;28.27;18.65;;;-5.00;73.10;;;;;;5216480;28;20044;-72
2021/01/16 02:07:50;;;;;;;25.85;17.00;;;-5.00;72.90;;;;;;5217340;28;20131;-72
2021/01/16 02:10:23;;;;;;;26.10;16.92;;;-5.00;72.80;;;;;;5216727;28;20084;-72
2021/01/16 02:12:57;;;;;;;24.00;17.67;;;-5.00;72.70;;;;;;5215060;28;20077;-73
2021/01/16 02:15:47;;;;;;;23.67;16.35;;;-5.00;72.60;;;;;;5215323;28;20049;-72
2021/01/16 02:18:30;;;;;;;19.13;13.73;;;-5.00;72.60;;;;;;5216346;28;20061;-72
2021/01/16 02:21:03;;;;;;;25.33;15.82;;;-4.90;72.70;;;;;;5214287;28;20051;-73
2021/01/16 02:24:20;;;;;;;19.55;14.27;;;-4.90;72.40;;;;;;5217083;28;20044;-72
2021/01/16 02:27:16;;;;;;;16.75;12.57;;;-4.90;72.30;;;;;;5214823;28;20504;-72
2021/01/16 02:29:47;;;;;;;17.00;12.63;;;-4.90;72.20;;;;;;5215622;28;20029;-73
2021/01/16 02:32:22;;;;;;;13.52;10.70;;;-4.90;72.20;;;;;;5213894;28;20078;-72
2021/01/16 02:34:56;;;;;;;9.80;8.80;;;-4.90;72.10;;;;;;5213176;28;20120;-73
2021/01/16 02:37:55;;;;;;;9.25;8.35;;;-4.90;72.00;;;;;;5208101;28;20053;-71
2021/01/16 02:41:07;;;;;;;8.68;7.78;;;-4.90;72.10;;;;;;5212499;28;20048;-72
2021/01/16 02:43:43;;;;;;;14.35;10.57;;;-4.90;72.00;;;;;;5171173;28;20033;-73
2021/01/16 02:46:25;;;;;;;18.52;13.35;;;-4.90;72.20;;;;;;5207880;28;20492;-75
2021/01/16 02:49:11;;;;;;;16.67;12.30;;;-4.90;72.20;;;;;;5215079;28;20438;-73
2021/01/16 02:52:01;;;;;;;14.95;12.00;;;-4.90;72.30;;;;;;5199692;28;20057;-76
2021/01/16 02:54:40;;;;;;;16.33;12.15;;;-4.90;72.20;;;;;;5217248;28;20583;-75
2021/01/16 02:57:12;;;;;;;16.67;12.40;;;-4.90;72.40;;;;;;5198961;28;20037;-75
2021/01/16 02:59:45;;;;;;;14.93;12.38;;;-4.90;72.60;;;;;;5217642;28;20106;-73
2021/01/16 03:02:18;;;;;;;15.32;12.20;;;-4.90;72.80;;;;;;5216251;28;20045;-74
2021/01/16 03:04:50;;;;;;;16.38;12.43;;;-4.90;72.60;;;;;;5216514;28;20183;-74
2021/01/16 03:07:22;;;;;;;16.65;12.80;;;-4.90;72.60;;;;;;5215878;28;20044;-72
2021/01/16 03:09:55;;;;;;;18.40;13.35;;;-4.90;72.60;;;;;;5216844;28;20048;-72
2021/01/16 03:12:27;;;;;;;18.40;13.65;;;-4.90;72.60;;;;;;5214055;28;20041;-73
2021/01/16 03:15:09;;;;;;;20.98;14.23;;;-4.90;72.70;;;;;;5215098;28;20415;-73
2021/01/16 03:17:40;;;;;;;16.48;12.38;;;-4.90;72.70;;;;;;5214631;28;20049;-73
2021/01/16 03:20:17;;;;;;;15.35;11.68;;;-4.90;72.40;;;;;;5214954;28;20416;-74
2021/01/16 03:22:59;;;;;;;16.25;12.10;;;-5.00;72.40;;;;;;5215999;28;20638;-76
2021/01/16 03:25:32;;;;;;;17.08;12.88;;;-5.00;72.10;;;;;;5216818;28;20041;-76
2021/01/16 03:28:03;;;;;;;16.08;12.50;;;-5.00;72.30;;;;;;5214823;28;20505;-75
2021/01/16 03:30:35;;;;;;;16.55;13.10;;;-5.00;72.20;;;;;;5213258;28;20040;-76
2021/01/16 03:33:07;;;;;;;19.15;14.07;;;-5.00;72.40;;;;;;5197560;28;20443;-74
2021/01/16 03:35:39;;;;;;;21.30;15.45;;;-5.00;72.50;;;;;;5214498;28;20037;-75
2021/01/16 03:38:10;;;;;;;18.70;13.90;;;-5.00;72.50;;;;;;5216314;28;20519;-74
2021/01/16 03:40:42;;;;;;;17.40;12.98;;;-5.00;72.50;;;;;;5215341;28;20148;-74
2021/01/16 03:43:14;;;;;;;17.08;12.73;;;-5.10;72.70;;;;;;5216842;28;20064;-75
2021/01/16 03:45:45;;;;;;;17.65;13.35;;;-5.10;72.70;;;;;;5212675;28;20036;-75
2021/01/16 03:48:20;;;;;;;19.05;13.70;;;-5.10;72.70;;;;;;5214443;28;20411;-76
2021/01/16 03:50:51;;;;;;;16.05;12.73;;;-5.10;72.80;;;;;;5214021;28;20096;-71
2021/01/16 03:53:23;;;;;;;16.88;12.73;;;-5.10;73.20;;;;;;5214406;28;20099;-72
2021/01/16 03:55:54;;;;;;;24.42;13.75;;;-5.20;72.90;;;;;;5214304;28;20049;-72
2021/01/16 03:58:25;;;;;;;21.05;15.15;;;-5.20;72.90;;;;;;5216018;28;20040;-73
2021/01/16 04:00:57;;;;;;;17.85;13.15;;;-5.20;73.00;;;;;;5215301;28;20041;-71
2021/01/16 04:03:28;;;;;;;18.73;14.68;;;-5.10;73.00;;;;;;5212940;28;20092;-72
2021/01/16 04:06:00;;;;;;;19.15;14.68;;;-5.10;72.90;;;;;;5214820;28;20451;-71
2021/01/16 04:08:32;;;;;;;15.68;12.00;;;-5.10;72.70;;;;;;5198331;28;20463;-72
2021/01/16 04:11:16;;;;;;;13.48;11.07;;;-5.10;72.60;;;;;;5212613;28;20048;-72
2021/01/16 04:13:56;;;;;;;17.25;11.90;;;-5.10;72.60;;;;;;5207708;28;20049;-73
2021/01/16 04:16:27;;;;;;;14.30;12.30;;;-5.10;72.60;;;;;;5211661;28;20438;-70
2021/01/16 04:18:59;;;;;;;13.30;11.32;;;-5.10;72.50;;;;;;5213621;28;20044;-71
2021/01/16 04:21:31;;;;;;;12.60;10.32;;;-5.00;72.40;;;;;;5209450;28;20115;-72
2021/01/16 04:24:02;;;;;;;12.35;9.90;;;-5.10;72.50;;;;;;5205293;28;20135;-72
2021/01/16 04:26:35;;;;;;;11.40;10.20;;;-5.10;72.50;;;;;;5214927;28;20049;-73
2021/01/16 04:29:06;;;;;;;9.20;8.30;;;-5.10;72.70;;;;;;5213740;28;20073;-71
2021/01/16 04:31:38;;;;;;;10.68;8.50;;;-5.10;72.50;;;;;;5209604;28;20640;-72
2021/01/16 04:34:10;;;;;;;9.70;8.63;;;-5.00;72.40;;;;;;5212039;28;20045;-70
2021/01/16 04:36:41;;;;;;;9.65;8.48;;;-5.10;72.40;;;;;;5212976;28;20063;-71
2021/01/16 04:39:13;;;;;;;14.80;11.10;;;-5.10;72.50;;;;;;5210636;28;20056;-71
2021/01/16 04:41:47;;;;;;;17.25;12.68;;;-5.10;72.40;;;;;;5212564;28;20053;-71
2021/01/16 04:44:21;;;;;;;16.70;13.02;;;-5.00;72.50;;;;;;5214582;28;20037;-72
2021/01/16 04:46:56;;;;;;;16.08;12.32;;;-5.10;72.30;;;;;;5208416;28;20045;-69
2021/01/16 04:49:28;;;;;;;12.85;10.65;;;-5.20;72.40;;;;;;5215521;28;20095;-72
2021/01/16 04:52:01;;;;;;;13.75;11.20;;;-5.20;72.50;;;;;;5212435;28;20087;-72
2021/01/16 04:54:34;;;;;;;11.70;10.50;;;-5.20;72.60;;;;;;5216152;28;20099;-73
2021/01/16 04:57:06;;;;;;;11.60;9.93;;;-5.10;72.80;;;;;;5214038;28;20547;-72
2021/01/16 04:59:38;;;;;;;12.30;10.10;;;-5.20;72.70;;;;;;5212422;28;20037;-72
2021/01/16 05:02:10;;;;;;;14.98;10.88;;;-5.10;72.80;;;;;;5214615;28;20515;-70
2021/01/16 05:04:45;;;;;;;15.60;11.85;;;-5.10;72.80;;;;;;5214397;28;20041;-74
2021/01/16 05:07:20;;;;;;;10.90;9.32;;;-5.10;72.80;;;;;;5213609;28;20065;-74
2021/01/16 05:09:52;;;;;;;10.27;9.18;;;-5.10;72.80;;;;;;5215226;28;20040;-72
2021/01/16 05:12:27;;;;;;;17.52;13.85;;;-5.10;72.70;;;;;;5214610;28;20087;-72
2021/01/16 05:15:16;;;;;;;17.38;13.07;;;-5.10;72.70;;;;;;5215667;28;20045;-72
2021/01/16 05:17:58;;;;;;;18.35;12.40;;;-5.10;72.60;;;;;;5214869;28;20049;-72
2021/01/16 05:20:31;;;;;;;13.35;11.27;;;-5.10;72.70;;;;;;5215009;28;20055;-69
2021/01/16 05:23:22;;;;;;;12.93;11.30;;;-5.20;73.00;;;;;;5215923;28;20037;-73
2021/01/16 05:25:53;;;;;;;;;;;-5.20;72.90;;;;;;5213026;28;20041;-72
2021/01/16 05:28:25;;;;;;;12.05;10.40;;;-5.20;73.00;;;;;;5212805;28;19924;-72
2021/01/16 05:30:59;;;;;;;10.50;9.43;;;-5.10;73.00;;;;;;5214772;28;20055;-73
2021/01/16 05:33:34;;;;;;;9.52;8.57;;;-5.20;73.20;;;;;;5219129;28;20098;-72
2021/01/16 05:36:08;;;;;;;9.75;8.70;;;-5.20;73.50;;;;;;5219123;28;20146;-71
2021/01/16 05:38:42;;;;;;;11.13;9.38;;;-5.20;73.40;;;;;;5218660;28;20103;-71
2021/01/16 05:41:14;;;;;;;8.65;7.85;;;-5.20;73.70;;;;;;5218661;28;20053;-71
2021/01/16 05:43:46;;;;;;;9.02;8.23;;;-5.30;74.10;;;;;;5218420;28;20049;-73
2021/01/16 05:46:19;;;;;;;10.93;8.93;;;-5.30;74.10;;;;;;5216962;28;20051;-73
2021/01/16 05:48:55;;;;;;;16.92;13.27;;;-5.30;74.70;;;;;;5216906;28;20562;-71
2021/01/16 05:51:28;;;;;;;21.23;16.30;;;-5.30;74.00;;;;;;5217158;28;20049;-72
2021/01/16 05:54:00;;;;;;;22.17;15.68;;;-5.20;74.00;;;;;;5218339;28;20044;-71
2021/01/16 05:56:34;;;;;;;22.15;16.73;;;-5.20;73.60;;;;;;5217843;28;20052;-72
2021/01/16 05:59:11;;;;;;;19.95;14.98;;;-5.30;73.50;;;;;;5218155;28;20852;-70
2021/01/16 06:01:45;;;;;;;19.05;14.82;;;-5.30;73.80;;;;;;5230164;28;20154;-70
2021/01/16 06:04:19;;;;;;;23.20;17.02;;;-5.40;74.20;;;;;;5217430;28;20049;-71
2021/01/16 06:06:50;;;;;;;24.05;16.98;;;-5.40;74.80;;;;;;5218199;28;20041;-70
2021/01/16 06:09:22;;;;;;;24.23;17.05;;;-5.40;73.70;;;;;;5219108;28;20049;-73
2021/01/16 06:12:04;;;;;;;23.75;15.95;;;-5.40;73.90;;;;;;5215598;28;20073;-71
2021/01/16 06:14:43;;;;;;;23.88;17.17;;;-5.50;74.20;;;;;;5215665;28;20695;-71
2021/01/16 06:17:17;;;;;;;21.90;15.32;;;-5.50;74.20;;;;;;5217055;28;20041;-70
2021/01/16 06:19:50;;;;;;;20.40;15.85;;;-5.50;74.30;;;;;;5217952;28;20041;-71
2021/01/16 06:22:32;;;;;;;19.70;14.68;;;-5.50;74.10;;;;;;5217166;28;20044;-70
2021/01/16 06:25:19;;;;;;;22.02;15.93;;;-5.40;74.00;;;;;;5215855;28;20037;-71
2021/01/16 06:27:51;;;;;;;19.98;15.00;;;-5.40;73.80;;;;;;5216749;28;20045;-73
2021/01/16 06:30:23;;;;;;;20.92;14.90;;;-5.30;73.60;;;;;;5214459;28;20045;-70
2021/01/16 06:32:55;;;;;;;17.35;13.18;;;-5.40;73.70;;;;;;5216472;28;20045;-71
2021/01/16 06:35:29;;;;;;;21.52;14.70;;;-5.40;74.70;;;;;;5231335;28;20037;-71
2021/01/16 06:38:02;;;;;;;19.75;14.15;;;-5.40;74.30;;;;;;5218464;28;20122;-72
2021/01/16 06:40:35;;;;;;;16.77;12.65;;;-5.40;74.10;;;;;;5217068;28;20107;-73
2021/01/16 06:43:16;;;;;;;18.00;13.88;;;-5.40;74.10;;;;;;5216537;28;20037;-71
2021/01/16 06:45:48;;;;;;;17.85;13.75;;;-5.40;74.00;;;;;;5215340;28;20045;-72
2021/01/16 06:48:23;;;;;;;17.98;13.40;;;-5.40;74.10;;;;;;5214810;28;20411;-72
2021/01/16 06:50:58;;;;;;;17.05;13.35;;;-5.40;74.00;;;;;;5210699;28;20045;-71
2021/01/16 06:53:31;;;;;;;15.85;12.88;;;-5.30;74.10;;;;;;5213862;28;20040;-71
2021/01/16 06:56:08;;;;;;;19.00;12.98;;;-5.30;74.20;;;;;;5209405;28;20130;-73
2021/01/16 06:58:42;;;;;;;18.38;13.50;;;-5.30;74.30;;;;;;5197204;28;20095;-71
2021/01/16 07:01:15;;;;;;;21.92;16.33;;;-5.30;74.10;;;;;;5206327;28;20041;-71
2021/01/16 07:03:47;;;;;;;20.05;14.30;;;-5.30;74.00;;;;;;5214211;28;20056;-73
2021/01/16 07:06:18;;;;;;;17.90;13.80;;;-5.30;74.60;;;;;;5217827;28;20045;-73
2021/01/16 07:08:51;;;;;;;19.35;14.55;;;-5.30;74.10;;;;;;5215749;28;20095;-73
2021/01/16 07:11:23;;;;;;;15.30;12.55;;;-5.30;74.00;;;;;;5214956;28;20053;-72
2021/01/16 07:13:54;;;;;;;19.73;15.07;;;-5.20;74.10;;;;;;5214802;28;20098;-72
2021/01/16 07:16:25;;;;;;;15.77;12.25;;;-5.30;73.90;;;;;;5215279;28;20052;-71
2021/01/16 07:18:58;;;;;;;16.25;13.30;;;-5.20;73.90;;;;;;5209065;28;20064;-71
2021/01/16 07:21:29;;;;;;;16.45;13.55;;;-5.20;74.00;;;;;;5213936;28;20064;-71
2021/01/16 07:24:02;;;;;;;11.88;10.30;;;-5.20;74.20;;;;;;5212803;28;20409;-71
2021/01/16 07:26:36;;;;;;;14.13;11.35;;;-5.20;74.30;;;;;;5181546;28;20098;-71
2021/01/16 07:29:09;;;;;;;9.32;8.43;;;-5.20;74.30;;;;;;5211314;28;20049;-72
2021/01/16 07:31:45;;;;;;;10.20;9.20;;;-5.20;74.60;;;;;;5212431;28;20079;-73
2021/01/16 07:34:17;;;;;;;8.63;7.80;;;-5.30;74.80;;;;;;5212310;28;20053;-73
2021/01/16 07:36:51;;;;;;;9.05;8.25;;;-5.30;74.20;;;;;;5197300;28;20080;-72
2021/01/16 07:39:26;;;;;;;9.60;8.70;;;-5.20;74.20;;;;;;5212837;28;20458;-73
2021/01/16 07:42:06;;;;;;;11.15;9.93;;;-5.20;74.30;;;;;;5214191;28;20048;-71
2021/01/16 07:44:45;;;;;;;;;;;-5.10;74.50;;;;;;5216486;28;20056;-71
2021/01/16 07:47:23;;;;;;;10.20;9.20;;;-5.10;73.90;;;;;;5214842;28;20370;-71
2021/01/16 07:49:57;;;;;;;9.07;8.18;;;-5.10;74.00;;;;;;5213895;28;20516;-71
2021/01/16 07:52:29;;;;;;;9.48;8.52;;;-5.10;73.50;;;;;;5212287;28;20048;-71
2021/01/16 07:55:07;;;;;;;9.98;9.02;;;-5.10;73.00;;;;;;5213556;28;20061;-71
2021/01/16 07:57:47;;;;;;;14.90;12.77;;;-5.10;72.80;;;;;;5214060;28;20045;-71
2021/01/16 08:00:22;;;;;;;22.65;17.35;;;-5.00;73.30;;;;;;5213924;28;20094;-72
2021/01/16 08:03:18;;;;;;;22.90;16.35;;;-4.90;72.90;;;;;;5213319;28;20447;-72
2021/01/16 08:06:15;;;;;;;42.90;25.00;;;-4.70;73.30;;;;;;5214448;28;20060;-73
2021/01/16 08:09:06;;;;;;;22.40;17.15;;;-4.70;72.10;;;;;;5212077;28;20147;-73
2021/01/16 08:11:51;;;;;;;21.65;16.60;;;-4.60;72.20;;;;;;5212955;28;20041;-72
2021/01/16 08:14:22;;;;;;;22.58;17.40;;;-4.50;72.40;;;;;;5211372;28;20048;-71
2021/01/16 08:16:58;;;;;;;22.73;18.00;;;-4.50;72.10;;;;;;5213631;28;20161;-72
2021/01/16 08:20:00;;;;;;;31.50;19.10;;;-4.50;72.80;;;;;;5197953;28;20128;-71
2021/01/16 08:22:52;;;;;;;26.08;18.85;;;-4.40;72.80;;;;;;5211890;28;20041;-72
2021/01/16 08:25:28;;;;;;;24.10;17.33;;;-4.40;72.80;;;;;;5208807;28;20098;-71
2021/01/16 08:28:04;;;;;;;26.27;18.00;;;-4.50;73.10;;;;;;5211910;28;20123;-72
2021/01/16 08:30:35;;;;;;;25.92;18.52;;;-4.40;73.20;;;;;;5213768;28;20569;-72
2021/01/16 08:33:13;;;;;;;27.23;20.33;;;-4.40;72.90;;;;;;5210750;28;20574;-72
2021/01/16 08:35:48;;;;;;;26.30;17.60;;;-4.30;73.20;;;;;;5204983;28;20147;-75
2021/01/16 08:38:19;;;;;;;25.33;17.98;;;-4.20;72.10;;;;;;5213671;28;20041;-74
2021/01/16 08:41:07;;;;;;;21.45;16.25;;;-4.20;72.00;;;;;;5211378;28;20048;-73
2021/01/16 08:43:43;;;;;;;24.40;17.52;;;-4.20;72.50;;;;;;5214507;28;20041;-72
2021/01/16 08:46:17;;;;;;;22.55;17.35;;;-4.20;71.40;;;;;;5205653;28;20056;-76
2021/01/16 08:49:10;;;;;;;23.27;17.73;;;-4.20;71.50;;;;;;5214393;28;20045;-77
2021/01/16 08:51:43;;;;;;;21.92;16.35;;;-4.10;72.00;;;;;;5195965;28;20128;-75
2021/01/16 08:54:19;;;;;;;20.17;14.80;;;-4.00;71.50;;;;;;5216439;28;20045;-75
2021/01/16 08:57:13;;;;;;;16.58;13.30;;;-4.00;71.40;;;;;;5215627;28;20053;-76
2021/01/16 08:59:45;;;;;;;16.15;13.50;;;-3.90;70.00;;;;;;5215749;28;20094;-74
2021/01/16 09:02:17;;;;;;;15.48;13.63;;;-3.90;70.20;;;;;;5215433;28;20119;-74
2021/01/16 09:04:49;;;;;;;14.70;12.75;;;-3.80;70.30;;;;;;5214394;28;20041;-78
2021/01/16 09:07:23;;;;;;;17.60;13.98;;;-3.70;69.10;;;;;;5219522;28;20049;-75
2021/01/16 09:10:00;;;;;;;16.42;13.98;;;-3.70;69.10;;;;;;5186717;28;20048;-76
2021/01/16 09:12:35;;;;;;;17.60;14.27;;;-3.70;69.30;;;;;;5217325;28;20036;-76
2021/01/16 09:15:24;;;;;;;17.77;14.05;;;-3.50;70.00;;;;;;5217096;28;20588;-77
2021/01/16 09:18:10;;;;;;;17.60;13.82;;;-3.30;69.90;;;;;;5218377;28;20039;-75
2021/01/16 09:20:43;;;;;;;13.73;12.15;;;-3.10;68.90;;;;;;5218874;28;20636;-71
2021/01/16 09:23:23;;;;;;;17.30;14.07;;;-2.90;69.30;;;;;;5210743;28;20045;-73
2021/01/16 09:25:57;;;;;;;14.15;12.35;;;-2.80;69.10;;;;;;5214908;28;20172;-75
2021/01/16 09:29:00;;;;;;;12.35;11.05;;;-2.60;68.30;;;;;;5219385;28;20750;-72
2021/01/16 09:31:45;;;;;;;9.85;8.90;;;-2.50;68.10;;;;;;5209352;28;20045;-72
2021/01/16 09:34:17;;;;;;;12.45;10.40;;;-2.50;65.70;;;;;;5213527;28;20136;-75
2021/01/16 09:37:00;;;;;;;9.98;8.98;;;-2.50;65.10;;;;;;5218603;28;20045;-77
2021/01/16 09:39:33;;;;;;;10.65;9.63;;;-2.50;65.60;;;;;;5217494;28;20381;-76
2021/01/16 09:42:20;;;;;;;11.02;9.63;;;-2.30;66.10;;;;;;5215669;28;20613;-76
2021/01/16 09:44:54;;;;;;;11.98;10.75;;;-2.20;65.10;;;;;;5218763;28;20037;-75
2021/01/16 09:47:25;;;;;;;10.80;9.70;;;-2.10;63.60;;;;;;5216660;28;20037;-73
2021/01/16 09:50:02;;;;;;;11.40;10.25;;;-2.10;64.00;;;;;;5209570;28;20114;-74
2021/01/16 09:52:33;;;;;;;10.55;9.50;;;-2.10;62.80;;;;;;5216464;28;20418;-76
2021/01/16 09:55:18;;;;;;;11.02;9.88;;;-2.20;61.50;;;;;;5218580;28;20048;-74
2021/01/16 09:57:50;;;;;;;11.63;10.43;;;-2.20;63.00;;;;;;5212953;28;20041;-78
2021/01/16 10:00:26;;;;;;;12.23;11.02;;;-2.10;64.10;;;;;;5216933;28;20048;-75
2021/01/16 10:03:00;;;;;;;13.45;12.00;;;-1.90;63.90;;;;;;5215022;28;20041;-76
2021/01/16 10:05:35;;;;;;;14.25;12.73;;;-1.80;64.20;;;;;;5214521;28;20102;-75
2021/01/16 10:08:08;;;;;;;13.65;12.25;;;-1.60;63.90;;;;;;5213362;28;20055;-75
2021/01/16 10:10:45;;;;;;;11.93;10.73;;;-1.50;63.90;;;;;;5216395;28;20048;-77
2021/01/16 10:13:29;;;;;;;12.27;11.07;;;-1.30;62.50;;;;;;5217824;28;20452;-76
2021/01/16 10:16:03;;;;;;;11.45;10.25;;;-1.20;62.60;;;;;;5216329;28;20056;-75
2021/01/16 10:18:36;;;;;;;11.25;10.15;;;-1.20;62.20;;;;;;5215319;28;20415;-74
2021/01/16 10:21:12;;;;;;;11.27;10.07;;;-1.20;61.90;;;;;;5211702;28;20121;-76
2021/01/16 10:23:44;;;;;;;11.65;10.50;;;-1.10;62.30;;;;;;5233885;28;20400;-73
2021/01/16 10:26:17;;;;;;;11.10;10.02;;;-1.10;62.00;;;;;;5216290;28;20040;-75
2021/01/16 10:28:48;;;;;;;11.30;9.90;;;-1.00;60.40;;;;;;5216063;28;20086;-75
2021/01/16 10:31:24;;;;;;;12.88;10.98;;;-1.10;60.40;;;;;;5227541;28;20546;-76
2021/01/16 10:34:07;;;;;;;14.05;12.32;;;-1.20;60.10;;;;;;5216328;28;20049;-75
2021/01/16 10:36:40;;;;;;;12.73;11.15;;;-1.40;61.10;;;;;;5216418;28;20045;-77
2021/01/16 10:39:16;;;;;;;11.90;10.65;;;-1.30;62.30;;;;;;5216548;28;20044;-72
2021/01/16 10:41:49;;;;;;;10.90;9.80;;;-1.20;61.30;;;;;;5227229;28;20557;-76
2021/01/16 10:44:22;;;;;;;10.75;9.65;;;-1.20;62.40;;;;;;5199230;28;20049;-76
2021/01/16 10:47:13;;;;;;;10.32;9.32;;;-1.10;62.00;;;;;;5213154;28;20551;-76
2021/01/16 10:49:50;;;;;;;9.93;8.93;;;-0.90;61.70;;;;;;5214035;28;20045;-75
2021/01/16 10:52:28;;;;;;;10.68;9.68;;;-0.80;61.00;;;;;;5215546;28;20499;-75
2021/01/16 10:55:11;;;;;;;11.13;9.45;;;-0.70;61.30;;;;;;5216528;28;20111;-74
2021/01/16 10:57:49;;;;;;;11.15;10.02;;;-0.70;60.00;;;;;;5227376;28;20048;-72
2021/01/16 11:00:21;;;;;;;9.70;8.70;;;-0.70;59.10;;;;;;5211339;28;20050;-72
2021/01/16 11:02:53;;;;;;;10.00;9.00;;;-0.80;58.60;;;;;;5215552;28;20071;-73
2021/01/16 11:05:26;;;;;;;10.27;9.18;;;-1.00;58.10;;;;;;5216133;28;20041;-74
2021/01/16 11:08:10;;;;;;;9.68;8.68;;;-1.00;60.00;;;;;;5213765;28;20482;-75
2021/01/16 11:10:42;;;;;;;10.07;9.07;;;-1.00;60.50;;;;;;5229299;28;20100;-73
2021/01/16 11:13:21;;;;;;;9.95;9.05;;;-0.90;60.60;;;;;;5216641;28;20037;-73
2021/01/16 11:16:11;;;;;;;9.82;8.93;;;-0.70;60.80;;;;;;5214265;28;20045;-78
2021/01/16 11:18:48;;;;;;;9.40;8.50;;;-0.60;59.70;;;;;;5215379;28;20135;-78
2021/01/16 11:21:52;;;;;;;10.32;9.32;;;-0.50;60.30;;;;;;5215448;28;20041;-79
2021/01/16 11:24:36;;;;;;;9.85;8.88;;;-0.40;60.10;;;;;;5207384;28;20110;-77
2021/01/16 11:27:11;;;;;;;9.75;8.82;;;-0.30;59.30;;;;;;5229990;28;20512;-77
2021/01/16 11:29:44;;;;;;;9.38;8.48;;;-0.20;58.50;;;;;;5214296;28;20044;-77
2021/01/16 11:32:17;;;;;;;9.85;8.93;;;-0.20;58.80;;;;;;5216012;28;20048;-76
2021/01/16 11:35:12;;;;;;;9.50;8.60;;;-0.20;58.80;;;;;;5214703;28;20798;-79
2021/01/16 11:37:58;;;;;;;9.65;8.75;;;-0.20;57.70;;;;;;5218960;28;20052;-80
2021/01/16 11:40:36;;;;;;;9.85;8.88;;;-0.20;58.90;;;;;;5228231;28;20055;-80
2021/01/16 11:43:13;;;;;;;9.70;8.80;;;-0.10;58.90;;;;;;5208659;28;20049;-72
2021/01/16 11:45:44;;;;;;;9.93;9.02;;;-0.10;58.10;;;;;;5215986;28;20049;-75
2021/01/16 11:48:16;;;;;;;10.02;9.02;;;-0.20;57.80;;;;;;5216821;28;20100;-73
2021/01/16 11:50:51;;;;;;;9.75;8.85;;;-0.20;58.30;;;;;;5213051;28;20045;-75
2021/01/16 11:53:23;;;;;;;10.80;9.70;;;-0.30;58.50;;;;;;5215011;28;20459;-74
2021/01/16 11:56:02;;;;;;;10.50;9.40;;;-0.20;58.50;;;;;;5218776;28;20048;-75
2021/01/16 11:58:36;;;;;;;10.48;9.48;;;-0.30;58.70;;;;;;5213609;28;20053;-74
2021/01/16 12:01:07;;;;;;;10.20;9.20;;;-0.30;58.60;;;;;;5213503;28;20048;-77
2021/01/16 12:03:39;;;;;;;10.40;9.40;;;-0.40;56.50;;;;;;5197675;28;20044;-77
2021/01/16 12:06:16;;;;;;;10.75;9.75;;;-0.70;58.50;;;;;;5213393;28;20444;-75
2021/01/16 12:08:48;;;;;;;10.55;9.55;;;-0.70;59.10;;;;;;5199631;28;20049;-75
2021/01/16 12:11:20;;;;;;;10.13;9.13;;;-0.60;59.20;;;;;;5211189;28;20041;-74
2021/01/16 12:13:52;;;;;;;10.50;9.50;;;-0.60;59.60;;;;;;5213810;28;20608;-74
2021/01/16 12:16:32;;;;;;;10.05;9.15;;;-0.50;59.40;;;;;;5208724;28;20043;-76
2021/01/16 12:19:05;;;;;;;;;;;-0.40;59.30;;;;;;5226705;28;20586;-75
2021/01/16 12:21:40;;;;;;;9.52;8.55;;;-0.40;58.80;;;;;;5211856;28;19974;-75
2021/01/16 12:24:13;;;;;;;9.52;8.52;;;-0.40;58.80;;;;;;5213090;28;20048;-73
2021/01/16 12:26:50;;;;;;;9.30;8.40;;;-0.40;58.50;;;;;;5210736;28;20096;-72
2021/01/16 12:29:25;;;;;;;10.18;9.07;;;-0.40;58.80;;;;;;5210344;28;20044;-75
2021/01/16 12:32:02;;;;;;;10.25;9.25;;;-0.40;58.90;;;;;;5212417;28;20036;-75
2021/01/16 12:34:43;;;;;;;10.50;9.20;;;-0.50;59.10;;;;;;5212912;28;20064;-75
2021/01/16 12:37:32;;;;;;;10.25;9.25;;;-0.50;58.70;;;;;;5211546;28;20041;-74
2021/01/16 12:40:17;;;;;;;9.50;8.60;;;-0.60;58.70;;;;;;5214537;28;20041;-76
2021/01/16 12:42:49;;;;;;;10.70;9.60;;;-0.70;58.80;;;;;;5213934;28;20115;-75
2021/01/16 12:45:27;;;;;;;10.43;9.43;;;-0.80;59.60;;;;;;5213966;28;20048;-73
2021/01/16 12:47:58;;;;;;;10.23;8.95;;;-0.80;60.00;;;;;;5212905;28;20412;-72
2021/01/16 12:50:30;;;;;;;10.10;9.10;;;-0.70;60.60;;;;;;5211985;28;20044;-72
2021/01/16 12:53:02;;;;;;;11.90;10.63;;;-0.70;60.30;;;;;;5212647;28;20056;-72
2021/01/16 12:55:34;;;;;;;10.73;9.63;;;-0.70;60.10;;;;;;5213856;28;20056;-72
2021/01/16 12:58:06;;;;;;;11.10;10.00;;;-0.70;59.40;;;;;;5215274;28;20052;-73
2021/01/16 13:00:39;;;;;;;10.77;9.68;;;-0.80;59.60;;;;;;5212509;28;20110;-72
2021/01/16 13:03:10;;;;;;;10.02;9.05;;;-0.80;59.40;;;;;;5193363;28;20073;-72
2021/01/16 13:05:42;;;;;;;11.00;9.90;;;-0.90;59.20;;;;;;5211612;28;20087;-72
2021/01/16 13:08:14;;;;;;;10.70;9.60;;;-1.20;59.50;;;;;;5215028;28;20053;-71
2021/01/16 13:10:52;;;;;;;11.48;10.27;;;-1.30;60.50;;;;;;5228608;28;20056;-73
2021/01/16 13:13:24;;;;;;;11.07;9.82;;;-1.30;61.20;;;;;;5215127;28;20047;-74
2021/01/16 13:16:00;;;;;;;11.65;9.90;;;-1.40;60.80;;;;;;5213468;28;20037;-72
2021/01/16 13:18:34;;;;;;;10.10;9.13;;;-1.40;60.50;;;;;;5194642;28;20112;-74